createdAt,value
2019-03-30T00:02:09.499Z,91.40
2019-03-30T00:04:35.802Z,91.20
2019-03-30T00:07:02.073Z,90.80
2019-03-30T00:09:28.468Z,90.80
2019-03-30T00:11:57.739Z,90.60
2019-03-30T00:14:22.892Z,90.20
2019-03-30T00:16:49.219Z,90.10
2019-03-30T00:19:15.603Z,90.60
2019-03-30T00:21:41.928Z,92.20
2019-03-30T00:24:08.202Z,91.90
2019-03-30T00:26:35.609Z,92.20
2019-03-30T00:29:01.887Z,91.80
2019-03-30T00:31:28.185Z,91.80
2019-03-30T00:33:54.426Z,91.80
2019-03-30T00:36:20.815Z,91.40
2019-03-30T00:38:49.176Z,91.40
2019-03-30T00:41:17.419Z,92.00
2019-03-30T00:43:43.713Z,92.20
2019-03-30T00:46:09.972Z,92.80
2019-03-30T00:48:36.290Z,93.00
2019-03-30T00:51:02.709Z,92.40
2019-03-30T00:53:29.070Z,91.80
2019-03-30T00:55:58.421Z,91.40
2019-03-30T00:58:25.752Z,92.10
2019-03-30T01:00:52.429Z,92.60
2019-03-30T01:03:18.716Z,93.10
2019-03-30T01:05:45.031Z,93.20
2019-03-30T01:08:11.399Z,93.70
2019-03-30T01:10:37.738Z,92.90
2019-03-30T01:13:04.035Z,93.30
2019-03-30T01:15:30.359Z,93.00
2019-03-30T01:17:56.659Z,93.40
2019-03-30T01:20:22.926Z,93.20
2019-03-30T01:22:49.191Z,93.50
2019-03-30T01:25:15.472Z,93.60
2019-03-30T01:27:41.765Z,93.00
2019-03-30T01:30:22.160Z,93.20
2019-03-30T01:32:37.004Z,93.10
2019-03-30T01:35:05.633Z,93.20
2019-03-30T01:37:31.974Z,92.70
2019-03-30T01:39:58.276Z,92.30
2019-03-30T01:42:27.715Z,92.10
2019-03-30T01:44:54.000Z,92.40
2019-03-30T01:47:22.694Z,92.40
2019-03-30T01:49:48.923Z,92.50
2019-03-30T01:52:15.396Z,92.10
2019-03-30T01:54:41.697Z,92.60
2019-03-30T01:57:07.951Z,92.50
2019-03-30T01:59:34.230Z,92.80
2019-03-30T02:02:00.591Z,92.20
2019-03-30T02:04:26.963Z,92.30
2019-03-30T02:06:53.233Z,92.50
2019-03-30T02:09:19.505Z,92.50
2019-03-30T02:11:45.770Z,92.80
2019-03-30T02:14:12.116Z,93.50
2019-03-30T02:16:38.387Z,93.50
2019-03-30T02:19:04.716Z,93.40
2019-03-30T02:21:30.967Z,93.20
2019-03-30T02:23:57.230Z,92.90
2019-03-30T02:26:23.560Z,93.30
2019-03-30T02:28:51.896Z,93.40
2019-03-30T02:31:19.247Z,92.90
2019-03-30T02:33:45.737Z,92.10
2019-03-30T02:36:15.053Z,91.80
2019-03-30T02:38:41.407Z,91.50
2019-03-30T02:41:08.698Z,91.00
2019-03-30T02:43:34.997Z,90.70
2019-03-30T02:46:02.669Z,90.90
2019-03-30T02:48:29.022Z,90.70
2019-03-30T02:50:55.386Z,91.90
2019-03-30T02:53:21.666Z,93.50
2019-03-30T02:55:48.044Z,93.20
2019-03-30T02:58:14.292Z,92.80
2019-03-30T03:00:46.543Z,92.90
2019-03-30T03:03:18.650Z,92.90
2019-03-30T03:05:44.936Z,93.70
2019-03-30T03:08:11.205Z,94.60
2019-03-30T03:10:37.470Z,94.80
2019-03-30T03:13:03.724Z,94.80
2019-03-30T03:15:30.000Z,94.60
2019-03-30T03:17:56.243Z,94.70
2019-03-30T03:20:22.619Z,94.50
2019-03-30T03:22:48.947Z,94.20
2019-03-30T03:25:15.223Z,93.90
2019-03-30T03:27:44.556Z,94.40
2019-03-30T03:30:11.101Z,94.20
2019-03-30T03:32:37.433Z,94.20
2019-03-30T03:35:03.674Z,94.40
2019-03-30T03:37:43.306Z,94.40
2019-03-30T03:39:57.998Z,94.10
2019-03-30T03:42:24.348Z,94.50
2019-03-30T03:44:53.757Z,94.40
2019-03-30T03:47:19.982Z,94.90
2019-03-30T03:49:46.273Z,95.40
2019-03-30T03:52:12.558Z,95.10
2019-03-30T03:54:38.808Z,94.70
2019-03-30T03:57:05.083Z,94.50
2019-03-30T04:02:17.559Z,94.00
2019-03-30T04:04:47.367Z,93.50
2019-03-30T04:07:12.483Z,93.30
2019-03-30T04:09:38.971Z,93.50
2019-03-30T04:12:06.741Z,93.00
2019-03-30T04:14:33.626Z,93.20
2019-03-30T04:16:59.963Z,93.00
2019-03-30T04:19:29.467Z,94.30
2019-03-30T04:21:56.021Z,94.50
2019-03-30T04:24:22.285Z,94.20
2019-03-30T04:26:48.654Z,94.30
2019-03-30T04:29:15.013Z,94.40
2019-03-30T04:31:41.312Z,94.00
2019-03-30T04:34:07.960Z,93.60
2019-03-30T04:36:40.207Z,93.50
2019-03-30T04:39:06.482Z,93.80
2019-03-30T04:41:32.722Z,94.00
2019-03-30T04:43:58.991Z,93.50
2019-03-30T04:46:28.291Z,93.20
2019-03-30T04:48:57.606Z,92.50
2019-03-30T04:51:23.901Z,91.70
2019-03-30T04:53:50.298Z,92.40
2019-03-30T04:56:18.782Z,93.30
2019-03-30T04:58:45.501Z,93.60
2019-03-30T05:01:14.867Z,94.20
2019-03-30T05:03:41.220Z,93.50
2019-03-30T05:06:07.546Z,92.80
2019-03-30T05:08:33.847Z,92.30
2019-03-30T05:11:00.213Z,91.90
2019-03-30T05:13:26.583Z,91.90
2019-03-30T05:15:52.922Z,91.70
2019-03-30T05:18:19.280Z,91.90
2019-03-30T05:20:45.622Z,92.70
2019-03-30T05:23:11.913Z,92.30
2019-03-30T05:25:38.216Z,91.90
2019-03-30T05:28:13.198Z,92.20
2019-03-30T05:30:39.519Z,92.40
2019-03-30T05:33:11.798Z,93.00
2019-03-30T05:35:38.123Z,93.00
2019-03-30T05:38:04.595Z,92.60
2019-03-30T05:40:36.691Z,92.50
2019-03-30T05:43:02.962Z,92.70
2019-03-30T05:45:29.326Z,92.60
2019-03-30T05:47:55.718Z,92.90
2019-03-30T05:50:21.991Z,92.60
2019-03-30T05:52:48.250Z,92.10
2019-03-30T05:55:14.618Z,91.40
2019-03-30T05:57:41.086Z,91.30
2019-03-30T06:00:08.145Z,90.40
2019-03-30T06:02:34.582Z,90.60
2019-03-30T06:05:03.353Z,90.90
2019-03-30T06:07:29.099Z,90.60
2019-03-30T06:09:55.543Z,90.00
2019-03-30T06:12:21.920Z,88.00
2019-03-30T06:14:48.293Z,86.30
2019-03-30T06:17:14.595Z,86.00
2019-03-30T06:19:40.905Z,85.80
2019-03-30T06:22:07.449Z,87.50
2019-03-30T06:24:33.857Z,87.10
2019-03-30T06:27:00.215Z,86.90
2019-03-30T06:29:29.810Z,88.00
2019-03-30T06:31:56.173Z,87.90
2019-03-30T06:34:22.464Z,87.90
2019-03-30T06:36:48.850Z,86.40
2019-03-30T06:39:15.165Z,85.80
2019-03-30T06:41:47.292Z,85.50
2019-03-30T06:44:13.575Z,84.70
2019-03-30T06:46:39.871Z,82.30
2019-03-30T06:49:06.301Z,80.00
2019-03-30T06:51:32.679Z,79.00
2019-03-30T06:53:58.944Z,78.00
2019-03-30T06:56:25.358Z,76.30
2019-03-30T06:58:54.663Z,74.80
2019-03-30T07:01:21.502Z,73.40
2019-03-30T07:03:47.922Z,71.50
2019-03-30T07:06:14.317Z,69.20
2019-03-30T07:08:41.105Z,64.30
2019-03-30T07:11:20.707Z,63.50
2019-03-30T07:13:36.899Z,60.00
2019-03-30T07:16:03.331Z,62.50
2019-03-30T07:18:29.653Z,60.40
2019-03-30T07:20:58.012Z,61.90
2019-03-30T07:23:30.136Z,60.00
2019-03-30T07:25:56.459Z,58.40
2019-03-30T07:28:22.699Z,56.90
2019-03-30T07:30:49.070Z,56.10
2019-03-30T07:33:15.438Z,52.10
2019-03-30T07:35:41.847Z,48.60
2019-03-30T07:38:08.162Z,46.50
2019-03-30T07:40:37.507Z,41.10
2019-03-30T07:43:03.878Z,40.50
2019-03-30T07:45:34.549Z,41.80
2019-03-30T07:48:06.788Z,42.90
2019-03-30T07:50:34.122Z,42.00
2019-03-30T07:53:00.544Z,40.60
2019-03-30T07:55:26.798Z,39.40
2019-03-30T07:57:56.317Z,38.20
2019-03-30T08:00:30.588Z,36.60
2019-03-30T08:02:53.122Z,34.10
2019-03-30T08:05:22.535Z,32.60
2019-03-30T08:07:52.138Z,31.90
2019-03-30T08:10:18.395Z,31.00
2019-03-30T08:12:44.759Z,29.70
2019-03-30T08:15:11.167Z,30.00
2019-03-30T08:17:43.703Z,29.80
2019-03-30T08:20:10.082Z,28.40
2019-03-30T08:22:36.989Z,27.80
2019-03-30T08:25:04.699Z,27.10
2019-03-30T08:27:31.018Z,26.20
2019-03-30T08:29:57.269Z,25.80
2019-03-30T08:32:23.605Z,24.80
2019-03-30T08:34:49.866Z,24.20
2019-03-30T08:37:17.226Z,24.20
2019-03-30T08:39:43.622Z,24.90
2019-03-30T08:42:13.118Z,25.70
2019-03-30T08:44:39.442Z,25.40
2019-03-30T08:47:05.855Z,25.60
2019-03-30T08:49:32.128Z,25.00
2019-03-30T08:51:58.434Z,25.90
2019-03-30T08:54:25.139Z,27.20
2019-03-30T08:56:51.491Z,27.10
2019-03-30T08:59:17.804Z,26.60
2019-03-30T09:01:44.207Z,26.60
2019-03-30T09:04:10.536Z,26.90
2019-03-30T09:06:36.819Z,25.60
2019-03-30T09:09:05.406Z,25.00
2019-03-30T09:11:31.840Z,24.50
2019-03-30T09:14:04.096Z,24.30
2019-03-30T09:16:32.473Z,24.20
2019-03-30T09:18:58.791Z,24.00
2019-03-30T09:21:25.113Z,25.50
2019-03-30T09:23:51.358Z,26.10
2019-03-30T09:26:17.632Z,25.40
2019-03-30T09:28:50.363Z,25.10
2019-03-30T09:31:16.662Z,25.00
2019-03-30T09:33:43.063Z,24.60
2019-03-30T09:36:15.213Z,24.90
2019-03-30T09:38:41.524Z,25.80
2019-03-30T09:41:08.376Z,25.70
2019-03-30T09:43:37.386Z,25.00
2019-03-30T09:46:03.153Z,25.80
2019-03-30T09:48:29.597Z,26.10
2019-03-30T09:50:55.880Z,26.80
2019-03-30T09:53:22.263Z,28.20
2019-03-30T09:55:48.534Z,28.30
2019-03-30T09:58:14.959Z,29.70
2019-03-30T10:00:44.366Z,30.70
2019-03-30T10:03:10.685Z,31.80
2019-03-30T10:05:37.074Z,32.40
2019-03-30T10:08:03.334Z,34.90
2019-03-30T10:10:29.583Z,36.00
2019-03-30T10:12:55.953Z,38.40
2019-03-30T10:15:22.565Z,38.20
2019-03-30T10:17:49.831Z,38.80
2019-03-30T10:20:17.534Z,39.80
2019-03-30T10:22:43.872Z,40.70
2019-03-30T10:25:10.277Z,41.00
2019-03-30T10:27:36.625Z,41.00
2019-03-30T10:30:07.254Z,41.00
2019-03-30T10:32:36.627Z,42.10
2019-03-30T10:35:06.109Z,38.90
2019-03-30T10:37:32.434Z,42.50
2019-03-30T10:39:58.851Z,41.30
2019-03-30T10:42:26.104Z,41.70
2019-03-30T10:44:58.483Z,41.00
2019-03-30T10:47:24.773Z,40.50
2019-03-30T10:49:51.445Z,40.90
2019-03-30T10:52:18.802Z,40.50
2019-03-30T10:54:52.552Z,41.30
2019-03-30T10:57:13.271Z,40.90
2019-03-30T10:59:45.663Z,39.80
2019-03-30T11:02:12.050Z,40.60
2019-03-30T11:04:38.410Z,39.30
2019-03-30T11:07:04.695Z,39.80
2019-03-30T11:09:33.966Z,39.40
2019-03-30T11:12:00.263Z,39.50
2019-03-30T11:14:26.538Z,39.90
2019-03-30T11:16:52.847Z,41.10
2019-03-30T11:19:19.182Z,40.50
2019-03-30T11:21:45.432Z,41.00
2019-03-30T11:24:11.759Z,40.70
2019-03-30T11:26:38.248Z,41.20
2019-03-30T11:29:04.523Z,40.80
2019-03-30T11:31:30.858Z,40.60
2019-03-30T11:33:57.157Z,38.10
2019-03-30T11:36:26.783Z,39.00
2019-03-30T11:38:53.097Z,38.70
2019-03-30T11:41:19.468Z,39.30
2019-03-30T11:43:45.819Z,41.60
2019-03-30T11:46:12.206Z,39.90
2019-03-30T11:48:38.491Z,40.00
2019-03-30T11:51:11.369Z,37.80
2019-03-30T11:53:37.687Z,38.10
2019-03-30T11:56:03.958Z,37.60
2019-03-30T11:58:30.317Z,39.80
2019-03-30T12:00:56.657Z,39.50
2019-03-30T12:03:22.918Z,38.90
2019-03-30T12:05:49.216Z,38.60
2019-03-30T12:08:15.599Z,38.10
2019-03-30T12:10:42.390Z,36.70
2019-03-30T12:13:08.901Z,34.40
2019-03-30T12:15:35.151Z,34.30
2019-03-30T12:18:01.488Z,36.50
2019-03-30T12:20:27.734Z,35.20
2019-03-30T12:22:59.960Z,34.20
2019-03-30T12:25:35.316Z,35.90
2019-03-30T12:27:57.465Z,33.40
2019-03-30T12:30:23.834Z,32.60
2019-03-30T12:32:50.124Z,33.20
2019-03-30T12:35:16.698Z,32.30
2019-03-30T12:37:43.074Z,32.60
2019-03-30T12:40:09.352Z,33.60
2019-03-30T12:42:35.589Z,33.90
2019-03-30T12:45:03.796Z,34.40
2019-03-30T12:47:35.919Z,34.00
2019-03-30T12:50:08.850Z,33.60
2019-03-30T12:53:04.228Z,34.40
2019-03-30T12:55:30.575Z,33.30
2019-03-30T12:58:16.964Z,34.40
2019-03-30T13:00:50.242Z,34.60
2019-03-30T13:03:16.688Z,33.70
2019-03-30T13:05:43.164Z,34.30
2019-03-30T13:08:09.842Z,34.90
2019-03-30T13:10:36.231Z,35.80
2019-03-30T13:13:05.581Z,36.00
2019-03-30T13:15:32.004Z,36.80
2019-03-30T13:17:58.291Z,35.60
2019-03-30T13:20:24.576Z,35.50
2019-03-30T13:22:50.909Z,35.80
2019-03-30T13:25:30.295Z,35.10
2019-03-30T13:27:56.606Z,34.70
2019-03-30T13:30:22.979Z,35.20
2019-03-30T13:32:55.304Z,34.60
2019-03-30T13:35:21.555Z,35.00
2019-03-30T13:37:47.906Z,35.00
2019-03-30T13:40:14.184Z,36.80
2019-03-30T13:42:40.560Z,36.90
2019-03-30T13:45:12.774Z,37.90
2019-03-30T13:47:39.069Z,36.80
2019-03-30T13:50:05.460Z,36.40
2019-03-30T13:52:31.738Z,36.00
2019-03-30T13:54:58.022Z,35.50
2019-03-30T13:57:24.619Z,35.00
2019-03-30T13:59:50.896Z,35.40
2019-03-30T14:02:17.257Z,34.40
2019-03-30T14:04:43.547Z,34.30
2019-03-30T14:07:09.804Z,35.80
2019-03-30T14:09:36.090Z,36.80
2019-03-30T14:12:17.461Z,36.00
2019-03-30T14:14:43.606Z,35.50
2019-03-30T14:17:09.878Z,35.60
2019-03-30T14:19:36.134Z,36.10
2019-03-30T14:22:02.469Z,36.70
2019-03-30T14:24:28.828Z,36.00
2019-03-30T14:26:55.100Z,36.30
2019-03-30T14:29:23.446Z,36.00
2019-03-30T14:31:49.863Z,36.20
2019-03-30T14:34:16.606Z,36.70
2019-03-30T14:36:42.866Z,36.80
2019-03-30T14:39:09.306Z,37.40
2019-03-30T14:41:35.652Z,37.30
2019-03-30T14:44:01.923Z,36.20
2019-03-30T14:46:30.208Z,36.80
2019-03-30T14:48:56.770Z,36.50
2019-03-30T14:51:23.120Z,36.90
2019-03-30T14:53:49.369Z,36.90
2019-03-30T14:56:21.475Z,37.00
2019-03-30T14:58:47.779Z,37.90
2019-03-30T15:01:14.066Z,37.40
2019-03-30T15:03:43.524Z,37.60
2019-03-30T15:06:09.857Z,37.50
2019-03-30T15:08:36.300Z,37.60
2019-03-30T15:11:02.617Z,37.60
2019-03-30T15:13:28.871Z,38.00
2019-03-30T15:15:55.118Z,38.10
2019-03-30T15:18:21.451Z,38.30
2019-03-30T15:20:47.806Z,38.30
2019-03-30T15:23:14.110Z,38.80
2019-03-30T15:25:40.478Z,39.00
2019-03-30T15:28:09.847Z,38.40
2019-03-30T15:30:42.227Z,38.80
2019-03-30T15:33:15.256Z,39.50
2019-03-30T15:35:41.639Z,39.40
2019-03-30T15:38:07.957Z,39.40
2019-03-30T15:40:34.529Z,39.20
2019-03-30T15:43:05.486Z,39.10
2019-03-30T15:45:31.918Z,39.60
2019-03-30T15:47:58.267Z,40.00
2019-03-30T15:50:24.552Z,39.70
2019-03-30T15:52:51.978Z,40.80
2019-03-30T15:55:18.287Z,40.70
2019-03-30T15:57:44.666Z,40.80
2019-03-30T16:00:12.615Z,40.10
2019-03-30T16:02:39.892Z,39.80
2019-03-30T16:05:06.625Z,40.30
2019-03-30T16:07:32.965Z,39.10
2019-03-30T16:10:00.609Z,40.30
2019-03-30T16:12:27.041Z,40.00
2019-03-30T16:14:53.354Z,40.40
2019-03-30T16:17:19.638Z,40.50
2019-03-30T16:19:46.621Z,40.30
2019-03-30T16:22:13.526Z,40.70
2019-03-30T16:24:39.842Z,41.30
2019-03-30T16:27:06.104Z,41.20
2019-03-30T16:29:38.784Z,41.20
2019-03-30T16:32:05.114Z,41.20
2019-03-30T16:34:31.394Z,41.20
2019-03-30T16:36:57.715Z,41.90
2019-03-30T16:39:24.048Z,41.70
2019-03-30T16:41:50.352Z,42.10
2019-03-30T16:44:16.622Z,42.30
2019-03-30T16:46:44.958Z,42.80
2019-03-30T16:49:11.235Z,42.40
2019-03-30T16:51:37.570Z,42.40
2019-03-30T16:54:04.067Z,43.00
2019-03-30T16:56:30.319Z,43.40
2019-03-30T16:59:05.763Z,43.80
2019-03-30T17:01:33.054Z,44.20
2019-03-30T17:03:59.407Z,44.90
2019-03-30T17:06:25.667Z,45.30
2019-03-30T17:08:51.917Z,45.30
2019-03-30T17:11:18.185Z,45.50
2019-03-30T17:13:44.582Z,45.40
2019-03-30T17:16:10.863Z,45.50
2019-03-30T17:18:37.206Z,45.50
2019-03-30T17:21:03.595Z,45.90
2019-03-30T17:23:30.000Z,46.50
2019-03-30T17:25:56.304Z,46.60
2019-03-30T17:28:23.785Z,47.00
2019-03-30T17:30:51.089Z,47.50
2019-03-30T17:33:17.370Z,47.60
2019-03-30T17:35:44.774Z,47.90
2019-03-30T17:38:11.066Z,48.00
2019-03-30T17:40:37.322Z,48.40
2019-03-30T17:43:10.023Z,48.60
2019-03-30T17:45:36.318Z,48.20
2019-03-30T17:48:02.616Z,48.60
2019-03-30T17:50:28.944Z,49.60
2019-03-30T17:52:55.268Z,50.10
2019-03-30T17:55:33.163Z,50.70
2019-03-30T17:57:50.616Z,51.60
2019-03-30T18:00:18.808Z,51.80
2019-03-30T18:02:45.548Z,52.30
2019-03-30T18:05:12.053Z,52.50
2019-03-30T18:07:38.336Z,53.20
2019-03-30T18:10:05.480Z,53.70
2019-03-30T18:12:32.016Z,54.20
2019-03-30T18:14:58.316Z,55.50
2019-03-30T18:17:24.639Z,56.60
2019-03-30T18:19:50.960Z,56.60
2019-03-30T18:22:20.271Z,58.40
2019-03-30T18:24:46.644Z,57.20
2019-03-30T18:27:13.038Z,57.40
2019-03-30T18:29:39.309Z,57.40
2019-03-30T18:32:05.662Z,57.90
2019-03-30T18:34:34.987Z,58.50
2019-03-30T18:37:07.468Z,58.40
2019-03-30T18:39:34.147Z,58.00
2019-03-30T18:42:03.448Z,58.40
2019-03-30T18:44:29.727Z,59.30
2019-03-30T18:47:02.712Z,59.20
2019-03-30T18:49:29.087Z,59.40
2019-03-30T18:51:55.395Z,59.50
2019-03-30T18:54:21.662Z,59.90
2019-03-30T18:56:47.913Z,59.70
2019-03-30T18:59:14.222Z,60.20
2019-03-30T19:01:42.516Z,62.40
2019-03-30T19:04:09.820Z,62.20
2019-03-30T19:06:36.092Z,61.90
2019-03-30T19:09:04.646Z,62.00
2019-03-30T19:11:31.067Z,62.30
2019-03-30T19:13:57.433Z,63.90
2019-03-30T19:16:23.775Z,64.30
2019-03-30T19:18:50.093Z,64.70
2019-03-30T19:21:16.458Z,65.80
2019-03-30T19:23:42.686Z,65.80
2019-03-30T19:26:08.963Z,66.20
2019-03-30T19:28:36.670Z,66.60
2019-03-30T19:31:06.470Z,67.20
2019-03-30T19:33:32.751Z,67.50
2019-03-30T19:35:59.034Z,68.80
2019-03-30T19:38:25.294Z,68.50
2019-03-30T19:40:51.626Z,69.90
2019-03-30T19:43:24.106Z,68.70
2019-03-30T19:45:50.431Z,68.50
2019-03-30T19:48:20.083Z,68.90
2019-03-30T19:50:46.365Z,68.70
2019-03-30T19:53:12.637Z,69.00
2019-03-30T19:55:44.971Z,69.00
2019-03-30T19:58:17.370Z,70.00
2019-03-30T20:00:44.703Z,70.40
2019-03-30T20:03:11.051Z,71.10
2019-03-30T20:05:37.358Z,71.40
2019-03-30T20:08:12.062Z,72.20
2019-03-30T20:10:34.735Z,74.00
2019-03-30T20:13:01.033Z,74.10
2019-03-30T20:15:27.263Z,74.10
2019-03-30T20:17:53.627Z,73.90
2019-03-30T20:20:20.147Z,74.50
2019-03-30T20:22:46.458Z,75.40
2019-03-30T20:25:12.712Z,76.60
2019-03-30T20:27:39.072Z,76.10
2019-03-30T20:30:06.749Z,75.00
2019-03-30T20:32:43.480Z,74.70
2019-03-30T20:35:15.122Z,74.40
2019-03-30T20:37:41.544Z,74.60
2019-03-30T20:40:10.018Z,74.60
2019-03-30T20:42:36.293Z,73.80
2019-03-30T20:45:05.780Z,73.50
2019-03-30T20:47:35.141Z,73.50
2019-03-30T20:50:01.428Z,73.60
2019-03-30T20:52:28.534Z,74.40
2019-03-30T20:54:54.932Z,74.70
2019-03-30T20:57:21.248Z,75.50
2019-03-30T20:59:56.553Z,75.80
2019-03-30T21:02:22.851Z,78.90
2019-03-30T21:04:49.192Z,79.20
2019-03-30T21:07:18.557Z,78.40
2019-03-30T21:09:44.839Z,77.90
2019-03-30T21:12:11.111Z,76.40
2019-03-30T21:14:37.665Z,76.30
2019-03-30T21:17:03.944Z,77.00
2019-03-30T21:19:30.278Z,76.30
2019-03-30T21:21:56.553Z,77.10
2019-03-30T21:24:22.824Z,77.70
2019-03-30T21:26:49.175Z,77.90
2019-03-30T21:29:15.546Z,78.80
2019-03-30T21:31:41.858Z,79.20
2019-03-30T21:34:08.123Z,79.00
2019-03-30T21:36:34.452Z,78.60
2019-03-30T21:39:00.758Z,77.60
2019-03-30T21:41:33.174Z,77.60
2019-03-30T21:43:59.483Z,77.30
2019-03-30T21:46:25.774Z,77.20
2019-03-30T21:48:52.143Z,77.30
2019-03-30T21:51:18.486Z,76.60
2019-03-30T21:53:44.776Z,77.50
2019-03-30T21:56:14.165Z,77.40
2019-03-30T21:58:40.433Z,77.20
2019-03-30T22:01:06.689Z,77.60
2019-03-30T22:03:32.953Z,78.20
2019-03-30T22:06:05.452Z,78.40
2019-03-30T22:08:31.829Z,78.40
2019-03-30T22:10:58.087Z,77.80
2019-03-30T22:13:24.375Z,78.10
2019-03-30T22:15:50.659Z,78.50
2019-03-30T22:18:16.944Z,78.70
2019-03-30T22:20:43.459Z,79.20
2019-03-30T22:23:13.072Z,80.00
2019-03-30T22:25:39.419Z,80.20
2019-03-30T22:28:05.781Z,80.70
2019-03-30T22:30:36.744Z,80.90
2019-03-30T22:33:04.807Z,80.60
2019-03-30T22:35:31.401Z,81.40
2019-03-30T22:37:57.660Z,82.10
2019-03-30T22:40:24.044Z,82.60
2019-03-30T22:42:50.521Z,82.80
2019-03-30T22:45:16.994Z,82.40
2019-03-30T22:47:43.341Z,82.10
2019-03-30T22:50:09.638Z,80.70
2019-03-30T22:52:35.901Z,80.60
2019-03-30T22:55:04.220Z,81.80
2019-03-30T22:57:30.509Z,82.60
2019-03-30T23:00:00.042Z,85.70
2019-03-30T23:02:26.418Z,88.10
2019-03-30T23:04:56.062Z,88.10
2019-03-30T23:07:22.340Z,86.50
2019-03-30T23:09:48.617Z,85.30
2019-03-30T23:12:15.156Z,84.20
2019-03-30T23:14:41.480Z,84.50
2019-03-30T23:17:07.812Z,83.50
2019-03-30T23:19:34.258Z,83.80
2019-03-30T23:22:00.524Z,84.50
2019-03-30T23:24:26.822Z,84.90
2019-03-30T23:26:58.858Z,85.00
2019-03-30T23:29:25.285Z,85.50
2019-03-30T23:31:51.574Z,86.50
2019-03-30T23:34:17.854Z,87.10
2019-03-30T23:36:44.116Z,86.30
2019-03-30T23:39:13.490Z,85.80
2019-03-30T23:41:39.761Z,85.10
2019-03-30T23:44:06.132Z,85.50
2019-03-30T23:46:33.414Z,85.50
2019-03-30T23:49:05.455Z,86.70
2019-03-30T23:51:31.841Z,88.30
2019-03-30T23:53:58.241Z,88.40
2019-03-30T23:56:27.698Z,87.30
2019-03-30T23:58:56.021Z,87.00
